Time;durP1;ratioP1;P1;durP2;ratioP2;P2;SDS_P1;SDS_P2;PMS_P1;PMS_P2;Temp;Humidity;BMP_temperature;BMP_pressure;BME280_temperature;BME280_humidity;BME280_pressure;Samples;Min_cycle;Max_cycle;Signal;HPM_P1;HPM_P2
2022/03/03 00:02:06;;;;;;;64.15;32.90;;;1.70;99.90;;;;;;5071822;28;20032;-83
2022/03/03 00:04:32;;;;;;;64.55;33.35;;;0.60;99.90;;;;;;5073124;28;20036;-84
2022/03/03 00:06:57;;;;;;;65.35;34.78;;;1.60;99.90;;;;;;5073395;28;20111;-84
2022/03/03 00:09:23;;;;;;;65.80;34.33;;;1.50;99.90;;;;;;5037499;28;20528;-84
2022/03/03 00:11:49;;;;;;;61.72;32.95;;;1.50;99.90;;;;;;5089861;28;20072;-83
2022/03/03 00:14:15;;;;;;;62.13;31.92;;;2.50;99.90;;;;;;5072764;28;20120;-84
2022/03/03 00:16:40;;;;;;;63.47;32.92;;;1.40;99.90;;;;;;5072417;28;20115;-83
2022/03/03 00:19:06;;;;;;;61.42;32.60;;;1.40;99.90;;;;;;5072302;28;20047;-84
2022/03/03 00:21:32;;;;;;;67.90;34.42;;;1.40;99.90;;;;;;5089443;28;20073;-84
2022/03/03 00:23:58;;;;;;;66.40;33.35;;;1.30;99.90;;;;;;5072926;28;20028;-84
2022/03/03 00:26:23;;;;;;;64.85;32.40;;;1.30;99.90;;;;;;5071697;28;20416;-84
2022/03/03 00:28:49;;;;;;;60.65;33.15;;;1.30;99.90;;;;;;5089669;28;20150;-84
2022/03/03 00:31:15;;;;;;;65.65;33.65;;;1.20;99.90;;;;;;5069551;28;20058;-84
2022/03/03 00:33:41;;;;;;;66.95;34.20;;;1.30;99.90;;;;;;5088734;28;20028;-84
2022/03/03 00:36:06;;;;;;;65.85;33.53;;;2.40;99.90;;;;;;5088802;28;20043;-84
2022/03/03 00:38:32;;;;;;;63.55;33.00;;;1.30;99.90;;;;;;5072284;28;20067;-84
2022/03/03 00:40:58;;;;;;;62.67;33.30;;;2.70;99.90;;;;;;5089131;28;20044;-84
2022/03/03 00:43:24;;;;;;;64.07;32.67;;;1.30;99.90;;;;;;5072068;28;20381;-84
2022/03/03 00:45:50;;;;;;;57.67;31.38;;;1.30;99.90;;;;;;5055698;28;20141;-84
2022/03/03 00:48:15;;;;;;;60.83;31.58;;;1.30;99.90;;;;;;5089156;28;20043;-83
2022/03/03 00:50:41;;;;;;;68.03;34.58;;;2.00;99.90;;;;;;5073195;28;20083;-84
2022/03/03 00:53:07;;;;;;;63.17;33.67;;;1.20;99.90;;;;;;5072386;28;20032;-83
2022/03/03 00:55:33;;;;;;;58.85;32.22;;;;;;;;;;5054913;28;20032;-83
2022/03/03 00:57:59;;;;;;;63.33;33.20;;;1.20;99.90;;;;;;5085970;28;20173;-83
2022/03/03 01:00:25;;;;;;;60.72;32.08;;;2.10;99.90;;;;;;5070778;28;20447;-83
2022/03/03 01:02:51;;;;;;;60.30;31.92;;;1.10;99.90;;;;;;5086118;28;20036;-84
2022/03/03 01:05:17;;;;;;;59.42;31.25;;;;;;;;;;5072033;28;20481;-84
2022/03/03 01:07:43;;;;;;;57.88;31.40;;;1.10;99.90;;;;;;5088786;28;20093;-83
2022/03/03 01:10:10;;;;;;;61.33;31.42;;;2.30;99.90;;;;;;5089235;28;20059;-84
2022/03/03 01:12:36;;;;;;;59.75;33.33;;;1.00;99.90;;;;;;5070927;28;20047;-85
2022/03/03 01:15:07;;;;;;;63.85;33.33;;;2.00;99.90;;;;;;5085630;28;20036;-83
2022/03/03 01:17:33;;;;;;;56.50;31.00;;;0.90;99.90;;;;;;5070351;28;20147;-85
2022/03/03 01:19:59;;;;;;;59.33;31.15;;;1.40;99.90;;;;;;5071101;28;20514;-83
2022/03/03 01:22:25;;;;;;;61.58;31.48;;;2.20;99.90;;;;;;5088536;28;20035;-84
2022/03/03 01:24:51;;;;;;;58.65;32.45;;;0.90;99.90;;;;;;5071835;28;20067;-84
2022/03/03 01:27:17;;;;;;;62.55;32.05;;;0.80;99.90;;;;;;5071343;28;20068;-84
2022/03/03 01:29:43;;;;;;;61.53;32.13;;;0.80;99.90;;;;;;5087559;28;20076;-83
2022/03/03 01:32:08;;;;;;;59.00;32.33;;;0.80;99.90;;;;;;5086782;28;20067;-83
2022/03/03 01:34:34;;;;;;;59.50;30.70;;;1.90;99.90;;;;;;5088285;28;20074;-84
2022/03/03 01:37:00;;;;;;;64.22;32.28;;;2.00;99.90;;;;;;5071029;28;20032;-84
2022/03/03 01:39:26;;;;;;;61.50;30.85;;;0.70;99.90;;;;;;5086731;28;20028;-84
2022/03/03 01:41:52;;;;;;;58.30;31.50;;;0.60;99.90;;;;;;5068978;28;20066;-83
2022/03/03 01:44:18;;;;;;;60.28;31.60;;;0.60;99.90;;;;;;5088330;28;20028;-83
2022/03/03 01:46:52;;;;;;;61.10;31.95;;;0.60;99.90;;;;;;5070744;28;20519;-83
2022/03/03 01:49:18;;;;;;;59.03;32.17;;;1.60;99.90;;;;;;5085362;28;20036;-84
2022/03/03 01:51:44;;;;;;;58.60;30.98;;;1.40;99.90;;;;;;5087671;28;20043;-83
2022/03/03 01:54:10;;;;;;;63.35;32.83;;;1.70;99.90;;;;;;5085879;28;20037;-83
2022/03/03 01:56:36;;;;;;;56.95;30.88;;;0.80;99.90;;;;;;5087653;28;20100;-84
2022/03/03 01:59:03;;;;;;;55.38;30.40;;;0.50;99.90;;;;;;5086716;28;20036;-83
2022/03/03 02:01:32;;;;;;;60.03;31.48;;;0.50;99.90;;;;;;5087038;28;20061;-83
2022/03/03 02:03:58;;;;;;;59.03;30.67;;;0.50;99.90;;;;;;5071410;28;20325;-83
2022/03/03 02:06:25;;;;;;;54.03;30.38;;;0.40;99.90;;;;;;5052290;28;20040;-82
2022/03/03 02:08:52;;;;;;;55.95;29.30;;;0.40;99.90;;;;;;5088212;28;20097;-83
2022/03/03 02:11:22;;;;;;;55.40;31.08;;;0.40;99.90;;;;;;5069104;28;20043;-84
2022/03/03 02:13:48;;;;;;;57.65;30.35;;;0.30;99.90;;;;;;5071009;28;20369;-83
2022/03/03 02:16:14;;;;;;;55.28;30.38;;;0.30;99.90;;;;;;5068535;28;20051;-83
2022/03/03 02:18:40;;;;;;;59.20;31.38;;;0.30;99.90;;;;;;5086211;28;20040;-83
2022/03/03 02:21:10;;;;;;;61.53;30.83;;;0.30;99.90;;;;;;5084272;28;20051;-83
2022/03/03 02:23:36;;;;;;;61.42;31.50;;;2.10;99.90;;;;;;5085937;28;20042;-84
2022/03/03 02:26:03;;;;;;;58.10;30.27;;;0.20;99.90;;;;;;5085650;28;20032;-83
2022/03/03 02:28:29;;;;;;;55.15;29.35;;;1.80;99.90;;;;;;5053287;28;20058;-83
2022/03/03 02:30:54;;;;;;;59.70;31.52;;;0.20;99.90;;;;;;5068219;28;20040;-83
2022/03/03 02:33:20;;;;;;;57.47;30.83;;;0.20;99.90;;;;;;5070044;28;20043;-83
2022/03/03 02:35:46;;;;;;;58.92;31.20;;;0.20;99.90;;;;;;5087249;28;20185;-83
2022/03/03 02:38:11;;;;;;;63.78;31.95;;;0.10;99.90;;;;;;5069907;28;20500;-84
2022/03/03 02:40:37;;;;;;;59.22;30.48;;;0.20;99.90;;;;;;5068429;28;20396;-83
2022/03/03 02:43:03;;;;;;;61.70;32.33;;;0.10;99.90;;;;;;5068535;28;20033;-83
2022/03/03 02:45:28;;;;;;;62.47;31.63;;;0.10;99.90;;;;;;5070143;28;20031;-83
2022/03/03 02:47:54;;;;;;;53.13;29.33;;;0.40;99.90;;;;;;5066657;28;20032;-83
2022/03/03 02:50:25;;;;;;;58.10;30.70;;;0.10;99.90;;;;;;5086383;28;20031;-83
2022/03/03 02:52:51;;;;;;;56.95;29.20;;;0.00;99.90;;;;;;5086949;28;20476;-82
2022/03/03 02:55:17;;;;;;;56.85;31.67;;;1.50;99.90;;;;;;5085982;28;20085;-83
2022/03/03 02:57:55;;;;;;;57.10;30.55;;;0.00;99.90;;;;;;5087364;28;20043;-83
2022/03/03 03:00:38;;;;;;;53.72;30.25;;;0.00;99.90;;;;;;5066607;28;20039;-84
2022/03/03 03:03:04;;;;;;;58.67;29.85;;;1.70;99.90;;;;;;5086756;28;20109;-83
2022/03/03 03:05:30;;;;;;;57.20;31.23;;;0.00;99.90;;;;;;5069464;28;20028;-83
2022/03/03 03:07:57;;;;;;;57.58;31.15;;;0.00;99.90;;;;;;5085968;28;20028;-83
2022/03/03 03:10:23;;;;;;;58.17;29.73;;;0.00;99.90;;;;;;5086315;28;20479;-83
2022/03/03 03:12:49;;;;;;;59.60;29.90;;;1.20;99.90;;;;;;5068840;28;20074;-83
2022/03/03 03:15:15;;;;;;;57.53;30.13;;;0.00;99.90;;;;;;5086326;28;20047;-83
2022/03/03 03:17:41;;;;;;;57.28;30.83;;;1.30;99.90;;;;;;5083059;28;20059;-83
2022/03/03 03:20:07;;;;;;;58.30;30.73;;;0.00;99.90;;;;;;5070113;28;20111;-83
2022/03/03 03:22:35;;;;;;;57.60;30.63;;;0.00;99.90;;;;;;5085048;28;20068;-83
2022/03/03 03:25:02;;;;;;;57.88;31.35;;;1.30;99.90;;;;;;5084062;28;20078;-82
2022/03/03 03:27:28;;;;;;;62.38;31.58;;;1.50;99.90;;;;;;5085161;28;20181;-83
2022/03/03 03:29:54;;;;;;;59.42;31.38;;;0.20;99.90;;;;;;5085379;28;20040;-83
2022/03/03 03:32:20;;;;;;;59.47;30.73;;;;;;;;;;5068883;28;20042;-83
2022/03/03 03:34:46;;;;;;;56.88;31.05;;;0.00;99.90;;;;;;5085246;28;20035;-82
2022/03/03 03:37:11;;;;;;;53.53;30.10;;;0.00;99.90;;;;;;5068637;28;20469;-82
2022/03/03 03:39:37;;;;;;;55.65;30.92;;;0.10;99.90;;;;;;5086400;28;20070;-83
2022/03/03 03:42:03;;;;;;;55.85;31.50;;;1.80;99.90;;;;;;5085674;28;20050;-82
2022/03/03 03:44:29;;;;;;;56.00;30.88;;;0.10;99.90;;;;;;5069049;28;20127;-83
2022/03/03 03:46:55;;;;;;;56.65;31.42;;;0.10;99.90;;;;;;5068021;28;20123;-83
2022/03/03 03:49:20;;;;;;;57.33;30.45;;;1.60;99.90;;;;;;5085576;28;20071;-83
2022/03/03 03:51:47;;;;;;;60.15;31.13;;;1.00;99.90;;;;;;5071610;28;20060;-83
2022/03/03 03:54:12;;;;;;;55.42;31.35;;;0.20;99.90;;;;;;5069228;28;20239;-82
2022/03/03 03:56:38;;;;;;;56.20;31.02;;;0.10;99.90;;;;;;5085046;28;20118;-83
2022/03/03 03:59:04;;;;;;;55.05;30.48;;;0.20;99.90;;;;;;5067386;28;20028;-82
2022/03/03 04:01:31;;;;;;;60.45;31.08;;;;;;;;;;5051790;28;20035;-82
2022/03/03 04:03:57;;;;;;;54.63;30.67;;;0.20;99.90;;;;;;5083732;28;20056;-83
2022/03/03 04:06:23;;;;;;;55.65;30.50;;;0.20;99.90;;;;;;5083655;28;20439;-82
2022/03/03 04:08:48;;;;;;;54.63;31.00;;;0.20;99.90;;;;;;5035286;28;20040;-83
2022/03/03 04:11:14;;;;;;;56.63;30.17;;;0.10;99.90;;;;;;5085323;28;20401;-83
2022/03/03 04:13:40;;;;;;;54.83;30.55;;;0.10;99.90;;;;;;5069523;28;20043;-83
2022/03/03 04:16:06;;;;;;;58.60;30.65;;;0.10;99.90;;;;;;5085638;28;20048;-82
2022/03/03 04:18:32;;;;;;;53.53;29.92;;;0.10;99.90;;;;;;5066902;28;20078;-83
2022/03/03 04:20:57;;;;;;;54.15;30.92;;;0.00;99.90;;;;;;5083739;28;20059;-83
2022/03/03 04:23:23;;;;;;;54.15;30.65;;;0.40;99.90;;;;;;5068716;28;20059;-83
2022/03/03 04:25:49;;;;;;;55.92;30.30;;;0.00;99.90;;;;;;5034794;28;20158;-84
2022/03/03 04:28:14;;;;;;;54.28;30.40;;;-0.10;99.90;;;;;;5068588;28;20040;-83
2022/03/03 04:30:40;;;;;;;53.20;28.80;;;0.90;99.90;;;;;;5083265;28;20131;-82
2022/03/03 04:33:06;;;;;;;54.75;29.67;;;;;;;;;;5069345;28;20169;-83
2022/03/03 04:35:32;;;;;;;53.83;29.77;;;-0.10;99.90;;;;;;5052687;28;20036;-82
2022/03/03 04:37:57;;;;;;;56.70;30.10;;;-0.20;99.90;;;;;;5051413;28;20109;-82
2022/03/03 04:40:23;;;;;;;50.10;28.17;;;-0.20;99.90;;;;;;5052787;28;20032;-83
2022/03/03 04:42:52;;;;;;;52.67;29.88;;;-0.20;99.90;;;;;;5088696;28;20028;-83
2022/03/03 04:45:18;;;;;;;49.15;28.83;;;-0.20;99.90;;;;;;5088476;28;20039;-82
2022/03/03 04:47:44;;;;;;;53.60;29.35;;;-0.30;99.90;;;;;;5088485;28;20048;-82
2022/03/03 04:50:10;;;;;;;47.75;28.05;;;1.40;99.90;;;;;;5048583;28;20473;-82
2022/03/03 04:52:36;;;;;;;52.33;29.02;;;-0.30;99.90;;;;;;5088760;28;20403;-82
2022/03/03 04:55:04;;;;;;;56.13;30.10;;;-0.30;99.90;;;;;;5088721;28;20499;-82
2022/03/03 04:57:31;;;;;;;52.88;28.73;;;-0.30;99.90;;;;;;5089126;28;20185;-82
2022/03/03 04:59:57;;;;;;;55.70;29.33;;;-0.30;99.90;;;;;;5085976;28;20493;-81
2022/03/03 05:02:22;;;;;;;54.95;29.35;;;-0.30;99.90;;;;;;5036785;28;20035;-82
2022/03/03 05:04:48;;;;;;;53.75;30.08;;;-0.30;99.90;;;;;;5088670;28;20035;-82
2022/03/03 05:07:14;;;;;;;48.00;27.55;;;-0.30;99.90;;;;;;5055417;28;20161;-82
2022/03/03 05:09:40;;;;;;;53.25;28.67;;;1.40;99.90;;;;;;5088573;28;20059;-82
2022/03/03 05:12:06;;;;;;;52.22;29.13;;;-0.40;99.90;;;;;;5071532;28;20087;-82
2022/03/03 05:14:32;;;;;;;54.65;30.85;;;-0.40;99.90;;;;;;5071068;28;20043;-82
2022/03/03 05:16:58;;;;;;;55.60;29.48;;;-0.40;99.90;;;;;;5087780;28;20036;-83
2022/03/03 05:19:23;;;;;;;53.63;28.65;;;-0.40;99.90;;;;;;5071660;28;20424;-82
2022/03/03 05:21:49;;;;;;;54.92;29.10;;;0.40;99.90;;;;;;5070841;28;20054;-82
2022/03/03 05:24:15;;;;;;;53.13;29.73;;;-0.40;99.90;;;;;;5071105;28;20155;-82
2022/03/03 05:26:41;;;;;;;50.47;28.63;;;0.20;99.90;;;;;;5073351;28;20093;-82
2022/03/03 05:29:07;;;;;;;48.95;28.30;;;0.30;99.90;;;;;;5071960;28;20042;-82
2022/03/03 05:31:34;;;;;;;52.75;28.48;;;-0.50;99.90;;;;;;5084134;28;20074;-82
2022/03/03 05:34:00;;;;;;;48.63;26.63;;;-0.40;99.90;;;;;;5070699;28;20035;-81
2022/03/03 05:36:26;;;;;;;50.30;27.23;;;0.70;99.90;;;;;;5068880;28;20033;-82
2022/03/03 05:38:56;;;;;;;52.53;27.60;;;-0.30;99.90;;;;;;5105496;28;20416;-82
2022/03/03 05:41:21;;;;;;;51.10;28.73;;;-0.30;99.90;;;;;;5086301;28;20071;-82
2022/03/03 05:43:47;;;;;;;48.35;27.15;;;-0.60;99.90;;;;;;5071568;28;20063;-82
2022/03/03 05:46:15;;;;;;;52.30;28.98;;;-0.60;99.90;;;;;;5087853;28;20518;-82
2022/03/03 05:48:41;;;;;;;49.17;27.55;;;-0.60;99.90;;;;;;5070855;28;20044;-81
2022/03/03 05:51:06;;;;;;;48.13;28.13;;;-0.60;99.90;;;;;;5087522;28;20051;-82
2022/03/03 05:53:32;;;;;;;49.75;28.17;;;-0.60;99.90;;;;;;5070393;28;20047;-82
2022/03/03 05:56:01;;;;;;;50.22;27.52;;;0.20;99.90;;;;;;5087084;28;20040;-82
2022/03/03 05:58:44;;;;;;;49.28;28.25;;;0.00;99.90;;;;;;5086506;28;20044;-82
2022/03/03 06:01:11;;;;;;;51.15;28.33;;;1.00;99.90;;;;;;5100867;28;20035;-81
2022/03/03 06:03:38;;;;;;;51.03;28.30;;;-0.60;99.90;;;;;;5102058;28;20129;-81
2022/03/03 06:06:25;;;;;;;52.33;28.90;;;-0.60;99.90;;;;;;5068777;28;20035;-82
2022/03/03 06:08:58;;;;;;;50.35;28.83;;;-0.50;99.90;;;;;;5087499;28;20092;-82
2022/03/03 06:11:27;;;;;;;51.67;28.52;;;-0.60;99.90;;;;;;5085141;28;20621;-82
2022/03/03 06:14:04;;;;;;;51.38;28.60;;;-0.50;99.90;;;;;;5070570;28;20040;-82
2022/03/03 06:16:31;;;;;;;49.92;27.75;;;-0.60;99.90;;;;;;5084527;28;20522;-81
2022/03/03 06:18:59;;;;;;;50.03;28.50;;;-0.50;99.90;;;;;;5086445;28;20424;-81
2022/03/03 06:21:25;;;;;;;50.92;28.52;;;1.30;99.90;;;;;;5103895;28;20051;-82
2022/03/03 06:23:51;;;;;;;52.03;29.63;;;-0.60;99.90;;;;;;5087865;28;20144;-82
2022/03/03 06:26:18;;;;;;;56.40;30.27;;;-0.50;99.90;;;;;;5085887;28;20169;-81
2022/03/03 06:28:45;;;;;;;51.85;27.65;;;-0.50;99.90;;;;;;5087477;28;20040;-82
2022/03/03 06:31:12;;;;;;;54.75;30.40;;;-0.60;99.90;;;;;;5083763;28;20125;-81
2022/03/03 06:33:38;;;;;;;53.53;29.98;;;1.00;99.90;;;;;;5081032;28;20044;-81
2022/03/03 06:36:04;;;;;;;52.35;29.58;;;-0.50;99.90;;;;;;5074481;28;20104;-82
2022/03/03 06:38:31;;;;;;;54.75;29.75;;;-0.50;99.90;;;;;;5080590;28;20028;-81
2022/03/03 06:40:57;;;;;;;53.60;30.10;;;-0.30;99.90;;;;;;5079815;28;20032;-82
2022/03/03 06:43:24;;;;;;;55.15;29.50;;;0.90;99.90;;;;;;5069056;28;20039;-82
2022/03/03 06:45:50;;;;;;;54.65;29.90;;;-0.40;99.90;;;;;;5065292;28;20039;-81
2022/03/03 06:48:16;;;;;;;56.67;30.15;;;-0.40;99.90;;;;;;5070972;28;20040;-82
2022/03/03 06:50:43;;;;;;;52.35;28.92;;;-0.40;99.90;;;;;;5085493;28;20101;-82
2022/03/03 06:53:10;;;;;;;55.50;29.45;;;0.20;99.90;;;;;;5064670;28;20037;-81
2022/03/03 06:55:38;;;;;;;57.63;31.33;;;1.10;99.90;;;;;;5063813;28;20050;-82
2022/03/03 06:58:04;;;;;;;56.55;30.05;;;0.90;99.90;;;;;;5073915;28;20132;-81
2022/03/03 07:00:33;;;;;;;55.08;29.75;;;-0.10;99.90;;;;;;5061299;28;20115;-81
2022/03/03 07:03:01;;;;;;;58.05;31.10;;;-0.20;99.90;;;;;;5059269;28;20042;-81
2022/03/03 07:05:29;;;;;;;51.38;29.85;;;-0.10;99.90;;;;;;5096740;28;20501;-83
2022/03/03 07:07:55;;;;;;;58.58;31.25;;;-0.10;99.90;;;;;;5092126;28;20063;-82
2022/03/03 07:10:25;;;;;;;59.20;31.23;;;0.00;99.90;;;;;;5075843;28;20699;-82
2022/03/03 07:12:57;;;;;;;60.92;32.30;;;0.00;99.90;;;;;;5078481;28;20040;-82
2022/03/03 07:15:25;;;;;;;58.28;31.35;;;0.10;99.90;;;;;;5099754;28;20511;-81
2022/03/03 07:17:53;;;;;;;58.63;31.25;;;1.40;99.90;;;;;;5043846;28;20040;-83
2022/03/03 07:20:57;;;;;;;56.75;31.42;;;0.20;99.90;;;;;;5078173;28;20615;-83
2022/03/03 07:23:36;;;;;;;56.28;30.55;;;0.30;99.90;;;;;;5080787;28;20483;-83
2022/03/03 07:26:04;;;;;;;53.45;29.90;;;0.40;99.90;;;;;;5077598;28;20401;-82
2022/03/03 07:28:31;;;;;;;58.17;32.15;;;0.50;99.90;;;;;;5056665;28;20040;-82
2022/03/03 07:31:01;;;;;;;54.90;30.50;;;0.50;99.90;;;;;;5063330;28;20035;-83
2022/03/03 07:33:56;;;;;;;55.60;30.92;;;2.10;99.90;;;;;;5078685;28;20032;-83
2022/03/03 07:36:28;;;;;;;56.63;29.50;;;0.70;99.90;;;;;;5066889;28;20509;-82
2022/03/03 07:39:02;;;;;;;56.83;31.58;;;0.80;99.90;;;;;;5074467;28;20048;-83
2022/03/03 07:41:29;;;;;;;58.70;31.55;;;0.90;99.90;;;;;;5080839;28;20400;-83
2022/03/03 07:43:57;;;;;;;56.30;30.35;;;1.50;99.90;;;;;;5064520;28;20040;-83
2022/03/03 07:46:24;;;;;;;56.75;31.58;;;1.60;99.90;;;;;;5077699;28;20045;-84
2022/03/03 07:48:53;;;;;;;57.13;30.95;;;1.20;99.90;;;;;;5059853;28;20036;-83
2022/03/03 07:51:20;;;;;;;49.45;29.20;;;1.20;99.90;;;;;;5050527;28;20032;-82
2022/03/03 07:53:46;;;;;;;54.47;30.83;;;1.30;99.90;;;;;;5073754;28;20036;-82
2022/03/03 07:56:20;;;;;;;53.90;30.98;;;3.10;99.90;;;;;;5066588;28;20068;-83
2022/03/03 07:58:50;;;;;;;57.92;31.27;;;1.60;99.90;;;;;;5060498;28;20040;-83
2022/03/03 08:01:17;;;;;;;53.33;29.77;;;1.50;99.90;;;;;;5079147;28;20032;-83
2022/03/03 08:03:46;;;;;;;53.92;30.35;;;1.60;99.90;;;;;;5053403;28;20034;-84
2022/03/03 08:06:14;;;;;;;52.65;29.60;;;1.70;99.90;;;;;;5081233;28;20146;-83
2022/03/03 08:08:40;;;;;;;52.15;29.38;;;1.80;99.90;;;;;;5068417;28;20461;-82
2022/03/03 08:11:08;;;;;;;50.95;28.52;;;1.80;99.90;;;;;;5058230;28;20066;-83
2022/03/03 08:13:34;;;;;;;50.45;29.23;;;2.00;99.90;;;;;;5096472;28;20115;-83
2022/03/03 08:16:01;;;;;;;50.90;28.95;;;2.00;99.90;;;;;;5060681;28;20619;-83
2022/03/03 08:18:35;;;;;;;48.17;28.30;;;3.20;99.90;;;;;;5067627;28;20051;-85
2022/03/03 08:21:01;;;;;;;;;;;1.80;99.90;;;;;;5064207;28;20101;-85
2022/03/03 08:23:28;;;;;;;49.60;28.50;;;4.20;99.90;;;;;;5066689;28;19934;-85
2022/03/03 08:25:55;;;;;;;52.15;28.85;;;4.20;99.90;;;;;;5082090;28;20036;-83
2022/03/03 08:28:25;;;;;;;48.78;27.65;;;3.20;99.90;;;;;;5084836;28;20105;-83
2022/03/03 08:30:56;;;;;;;50.97;29.45;;;2.50;99.90;;;;;;5074801;28;20039;-82
2022/03/03 08:33:52;;;;;;;48.33;27.70;;;4.00;99.90;;;;;;5073917;28;20041;-83
2022/03/03 08:36:24;;;;;;;46.85;27.20;;;2.70;99.90;;;;;;5056831;28;20127;-84
2022/03/03 08:38:52;;;;;;;45.13;27.08;;;2.90;99.90;;;;;;5074811;28;20047;-86
2022/03/03 08:41:21;;;;;;;47.42;27.33;;;3.00;99.90;;;;;;5062659;28;20047;-85
2022/03/03 08:43:51;;;;;;;50.53;28.23;;;4.20;99.90;;;;;;5067197;28;20588;-84
2022/03/03 08:46:21;;;;;;;49.58;28.92;;;3.10;99.90;;;;;;5086237;28;20112;-84
2022/03/03 08:48:49;;;;;;;46.63;27.13;;;3.30;99.90;;;;;;5076133;28;20033;-84
2022/03/03 08:51:19;;;;;;;43.90;26.00;;;3.40;99.90;;;;;;5059987;28;20044;-84
2022/03/03 08:53:47;;;;;;;45.38;26.70;;;5.10;99.90;;;;;;5081536;28;20044;-84
2022/03/03 08:56:14;;;;;;;46.63;26.60;;;3.50;99.90;;;;;;5049364;28;20044;-83
2022/03/03 08:58:40;;;;;;;44.25;26.02;;;3.60;99.90;;;;;;5066051;28;20475;-82
2022/03/03 09:01:06;;;;;;;41.78;25.15;;;4.60;99.90;;;;;;5083166;28;20073;-82
2022/03/03 09:03:32;;;;;;;43.17;25.73;;;5.40;99.90;;;;;;5066348;28;20074;-84
2022/03/03 09:05:57;;;;;;;42.83;24.73;;;3.90;99.90;;;;;;5080251;28;20588;-83
2022/03/03 09:08:24;;;;;;;43.13;24.35;;;3.90;99.90;;;;;;5063386;28;20127;-85
2022/03/03 09:10:50;;;;;;;42.55;25.35;;;4.00;99.90;;;;;;5063194;28;20054;-84
2022/03/03 09:13:16;;;;;;;42.15;25.83;;;5.10;99.90;;;;;;5063938;28;20891;-84
2022/03/03 09:15:42;;;;;;;42.60;24.83;;;4.20;99.90;;;;;;5064420;28;20509;-83
2022/03/03 09:18:09;;;;;;;40.45;24.65;;;;;;;;;;5078433;28;20032;-85
2022/03/03 09:20:36;;;;;;;40.20;24.10;;;4.40;99.90;;;;;;5041214;28;20053;-84
2022/03/03 09:23:02;;;;;;;38.95;23.00;;;4.50;99.90;;;;;;5042662;28;20125;-83
2022/03/03 09:25:28;;;;;;;41.97;24.73;;;4.60;99.90;;;;;;5041527;28;20417;-84
2022/03/03 09:27:54;;;;;;;36.97;24.40;;;4.70;99.90;;;;;;5004166;28;20041;-83
2022/03/03 09:30:21;;;;;;;40.33;24.02;;;6.30;99.90;;;;;;5030848;28;20040;-83
2022/03/03 09:32:47;;;;;;;38.10;23.02;;;6.50;99.90;;;;;;5048211;28;20048;-83
2022/03/03 09:35:13;;;;;;;37.90;22.92;;;6.00;99.90;;;;;;5011451;28;20120;-84
2022/03/03 09:37:40;;;;;;;36.03;23.15;;;6.00;99.90;;;;;;5018189;28;20032;-83
2022/03/03 09:40:07;;;;;;;37.55;23.10;;;6.50;99.90;;;;;;5026598;28;20099;-83
2022/03/03 09:42:34;;;;;;;38.58;23.02;;;5.20;99.90;;;;;;5024322;28;20053;-83
2022/03/03 09:45:01;;;;;;;36.78;22.70;;;5.30;99.90;;;;;;5025017;28;20034;-82
2022/03/03 09:47:27;;;;;;;37.75;21.92;;;5.40;99.90;;;;;;5041229;28;20131;-82
2022/03/03 09:49:53;;;;;;;39.05;23.33;;;5.50;99.90;;;;;;5039886;28;20037;-84
2022/03/03 09:52:20;;;;;;;34.63;21.52;;;6.70;99.90;;;;;;5022348;28;20080;-82
2022/03/03 09:54:54;;;;;;;34.53;20.73;;;5.80;99.90;;;;;;5040968;28;20074;-82
2022/03/03 09:57:20;;;;;;;33.30;20.40;;;5.90;99.90;;;;;;5019764;28;20041;-84
2022/03/03 09:59:47;;;;;;;33.10;19.95;;;6.10;99.90;;;;;;5030200;28;20121;-82
2022/03/03 10:02:13;;;;;;;31.88;20.65;;;6.10;99.90;;;;;;5036120;28;20048;-83
2022/03/03 10:04:40;;;;;;;31.27;19.13;;;7.40;99.90;;;;;;5024097;28;20029;-83
2022/03/03 10:07:07;;;;;;;32.00;19.92;;;7.00;99.90;;;;;;5027564;28;20426;-85
2022/03/03 10:12:21;;;;;;;26.25;17.40;;;;;;;;;;5031575;28;20783;-85
2022/03/03 10:14:48;;;;;;;26.38;16.73;;;6.60;99.90;;;;;;5033110;28;20049;-83
2022/03/03 10:17:15;;;;;;;24.13;15.35;;;6.70;99.90;;;;;;5042026;28;20041;-84
2022/03/03 10:19:54;;;;;;;25.30;15.50;;;7.00;99.90;;;;;;5065567;28;20052;-85
2022/03/03 10:22:41;;;;;;;23.98;14.70;;;6.90;99.90;;;;;;5048133;28;20043;-84
2022/03/03 10:25:09;;;;;;;25.10;15.60;;;7.00;99.90;;;;;;5078703;28;20068;-84
2022/03/03 10:27:36;;;;;;;25.10;14.88;;;7.00;99.90;;;;;;5073095;28;20044;-86
2022/03/03 10:30:05;;;;;;;24.23;15.43;;;8.70;99.90;;;;;;5081226;28;20032;-84
2022/03/03 10:32:31;;;;;;;23.88;14.75;;;7.10;99.90;;;;;;5081232;28;20032;-85
2022/03/03 10:35:18;;;;;;;24.50;15.27;;;7.20;99.90;;;;;;5082702;28;20035;-85
2022/03/03 10:37:45;;;;;;;24.58;15.55;;;7.30;99.90;;;;;;5090268;28;20041;-85
2022/03/03 10:40:13;;;;;;;24.23;15.18;;;7.30;99.90;;;;;;5083174;28;20051;-85
2022/03/03 10:42:44;;;;;;;24.30;14.02;;;7.40;99.90;;;;;;5078137;28;20032;-83
2022/03/03 10:45:19;;;;;;;21.83;13.50;;;8.00;99.90;;;;;;5080024;28;20039;-86
2022/03/03 10:48:00;;;;;;;26.40;14.43;;;7.50;99.90;;;;;;5075086;28;20442;-85
2022/03/03 10:50:26;;;;;;;22.20;13.85;;;7.60;99.90;;;;;;5074859;28;20071;-83
2022/03/03 10:52:52;;;;;;;22.85;14.13;;;7.60;99.90;;;;;;5081669;28;20040;-85
2022/03/03 10:55:18;;;;;;;22.30;15.05;;;8.60;99.90;;;;;;5063774;28;20381;-84
2022/03/03 10:57:56;;;;;;;23.88;14.85;;;8.00;99.90;;;;;;5066855;28;20036;-84
2022/03/03 11:00:27;;;;;;;23.48;15.50;;;7.80;99.90;;;;;;5082509;28;20028;-84
2022/03/03 11:02:58;;;;;;;25.52;15.82;;;7.80;99.90;;;;;;5069107;28;20039;-83
2022/03/03 11:05:26;;;;;;;28.02;17.20;;;7.80;99.90;;;;;;5075347;28;20043;-84
2022/03/03 11:07:58;;;;;;;25.70;16.42;;;8.10;99.90;;;;;;5076391;28;20056;-85
2022/03/03 11:10:27;;;;;;;24.77;16.80;;;8.90;99.90;;;;;;5062315;28;20058;-85
2022/03/03 11:12:54;;;;;;;25.13;15.75;;;7.90;99.90;;;;;;5080956;28;20051;-85
2022/03/03 11:15:22;;;;;;;23.48;14.95;;;7.90;99.90;;;;;;5061917;28;20032;-85
2022/03/03 11:17:49;;;;;;;24.17;15.38;;;8.00;99.90;;;;;;5075148;28;20494;-85
2022/03/03 11:20:18;;;;;;;24.35;14.50;;;8.60;99.90;;;;;;5077819;28;20139;-85
2022/03/03 11:22:45;;;;;;;26.58;16.85;;;8.00;99.90;;;;;;5079187;28;20115;-85
2022/03/03 11:25:24;;;;;;;27.15;17.30;;;8.40;99.90;;;;;;5081403;28;20044;-86
2022/03/03 11:28:14;;;;;;;26.98;17.30;;;8.10;99.90;;;;;;5082994;28;20492;-85
2022/03/03 11:30:41;;;;;;;25.05;16.52;;;8.10;99.90;;;;;;5084236;28;20036;-85
2022/03/03 11:33:27;;;;;;;26.90;16.77;;;8.20;99.90;;;;;;5065126;28;20089;-85
2022/03/03 11:36:04;;;;;;;28.23;17.10;;;8.20;99.90;;;;;;5097391;28;20497;-85
2022/03/03 11:38:45;;;;;;;26.92;17.42;;;8.30;99.90;;;;;;5081353;28;20047;-85
2022/03/03 11:41:12;;;;;;;25.17;16.70;;;8.60;99.90;;;;;;5073307;28;20501;-85
2022/03/03 11:43:47;;;;;;;26.75;16.98;;;8.30;99.90;;;;;;5076693;28;20108;-84
2022/03/03 11:46:13;;;;;;;25.75;17.00;;;8.30;99.90;;;;;;5077466;28;20036;-85
2022/03/03 11:48:39;;;;;;;25.48;16.30;;;8.30;99.90;;;;;;5063160;28;20059;-85
2022/03/03 11:51:32;;;;;;;25.60;16.23;;;10.10;99.90;;;;;;5086449;28;20040;-85
2022/03/03 11:54:10;;;;;;;25.55;16.17;;;8.50;99.90;;;;;;5089457;28;20036;-84
2022/03/03 11:57:03;;;;;;;26.77;17.17;;;8.60;99.90;;;;;;5073241;28;20579;-85
2022/03/03 11:59:34;;;;;;;24.92;16.33;;;8.60;99.90;;;;;;5084899;28;20078;-85
2022/03/03 12:02:01;;;;;;;25.98;15.93;;;8.60;99.90;;;;;;5084020;28;20039;-84
2022/03/03 12:04:27;;;;;;;24.65;15.00;;;8.70;99.90;;;;;;5068887;28;20036;-85
2022/03/03 12:06:54;;;;;;;24.02;15.82;;;9.40;99.90;;;;;;5069122;28;20586;-85
2022/03/03 12:09:22;;;;;;;26.38;16.60;;;8.70;99.90;;;;;;5082579;28;20032;-84
2022/03/03 12:11:49;;;;;;;26.23;16.52;;;8.80;99.90;;;;;;5065514;28;20110;-84
2022/03/03 12:14:47;;;;;;;26.02;15.93;;;8.80;99.90;;;;;;5066862;28;20093;-84
2022/03/03 12:17:42;;;;;;;23.35;15.23;;;8.80;99.90;;;;;;5077083;28;20394;-85
2022/03/03 12:23:18;;;;;;;23.60;15.60;;;8.90;99.90;;;;;;5096041;28;20044;-84
2022/03/03 12:25:50;;;;;;;24.02;14.68;;;8.80;99.90;;;;;;5086876;28;20036;-85
2022/03/03 12:28:47;;;;;;;25.60;16.08;;;8.90;99.90;;;;;;5081653;28;21424;-84
2022/03/03 12:31:24;;;;;;;22.98;15.38;;;9.00;99.90;;;;;;5081979;28;20062;-83
2022/03/03 12:34:08;;;;;;;23.90;15.25;;;9.00;99.90;;;;;;5063924;28;20376;-85
2022/03/03 12:36:36;;;;;;;23.10;15.88;;;9.10;99.90;;;;;;5085218;28;20036;-85
2022/03/03 12:39:05;;;;;;;24.55;15.68;;;9.20;99.90;;;;;;5078353;28;20032;-86
2022/03/03 12:41:32;;;;;;;23.08;14.77;;;9.10;99.90;;;;;;5080909;28;20510;-88
2022/03/03 12:44:13;;;;;;;27.40;15.20;;;9.20;99.90;;;;;;5063796;28;20036;-85
2022/03/03 12:46:41;;;;;;;22.42;13.65;;;9.30;99.90;;;;;;5064181;28;20079;-85
2022/03/03 12:49:12;;;;;;;22.38;14.35;;;9.30;99.90;;;;;;5089859;28;20032;-85
2022/03/03 12:51:43;;;;;;;24.85;14.70;;;9.30;99.90;;;;;;5070616;28;20036;-83